createdAt,value
2018-05-01T01:32:17.826Z,98877.06
2018-05-01T01:38:50.261Z,98898.62
2018-05-01T01:42:23.216Z,98902.47
2018-05-01T01:45:25.147Z,98892.09
2018-05-01T01:48:27.297Z,98890.54
2018-05-01T01:51:28.489Z,98903.34
2018-05-01T01:54:29.714Z,98898.88
2018-05-01T01:57:38.770Z,98899.47
2018-05-01T02:00:42.981Z,98904.84
2018-05-01T02:03:44.944Z,98920.54
2018-05-01T02:06:46.922Z,98906.41
2018-05-01T02:09:48.112Z,98918.64
2018-05-01T02:12:49.383Z,98911.70
2018-05-01T02:15:50.555Z,98934.91
2018-05-01T02:19:00.655Z,98918.52
2018-05-01T02:22:01.778Z,98911.77
2018-05-01T02:25:03.096Z,98939.00
2018-05-01T02:28:09.095Z,98921.78
2018-05-01T02:31:11.085Z,98942.09
2018-05-01T02:34:13.160Z,98921.45
2018-05-01T02:57:30.131Z,98967.06
2018-05-01T03:00:33.015Z,98963.98
2018-05-01T03:03:35.294Z,98956.28
2018-05-01T03:06:36.778Z,98973.89
2018-05-01T03:09:38.920Z,98973.76
2018-05-01T03:12:41.112Z,98977.27
2018-05-01T03:15:42.338Z,98976.88
2018-05-01T03:18:43.626Z,98987.41
2018-05-01T03:25:01.580Z,98986.61
2018-05-01T03:28:05.781Z,99033.09
2018-05-01T03:31:08.313Z,98974.44
2018-05-01T03:34:09.681Z,98985.16
2018-05-01T03:37:12.455Z,98996.66
2018-05-01T03:40:19.613Z,98996.72
2018-05-01T04:22:10.017Z,99057.02
2018-05-01T04:25:12.827Z,99054.85
2018-05-01T04:28:21.682Z,99063.44
2018-05-01T04:31:27.487Z,99066.78
2018-05-01T04:42:00.596Z,99092.02
2018-05-01T04:45:08.885Z,99102.89
2018-05-01T04:48:29.208Z,99099.08
2018-05-01T05:08:32.936Z,99129.45
2018-05-01T05:11:35.275Z,99130.66
2018-05-01T05:14:38.101Z,99144.83
2018-05-01T05:17:40.834Z,99142.87
2018-05-01T05:20:45.861Z,99143.90
2018-05-01T05:23:50.389Z,99153.27
2018-05-01T05:30:07.291Z,99167.98
2018-05-01T05:33:20.983Z,99174.79
2018-05-01T05:36:29.519Z,99173.08
2018-05-01T05:39:30.861Z,99186.92
2018-05-01T05:42:32.041Z,99189.11
2018-05-01T05:45:33.231Z,99188.71
2018-05-01T05:48:35.444Z,99194.48
2018-05-01T05:51:36.736Z,99190.49
2018-05-01T05:54:38.059Z,99202.56
2018-05-01T05:57:39.232Z,99219.91
2018-05-01T06:00:42.251Z,99213.23
2018-05-01T06:03:43.464Z,99198.48
2018-05-01T06:06:44.713Z,99227.34
2018-05-01T06:09:47.576Z,99222.78
2018-05-01T06:12:49.745Z,99228.34
2018-05-01T06:15:50.893Z,99236.03
2018-05-01T06:18:52.084Z,99239.93
2018-05-01T06:21:54.155Z,99241.03
2018-05-01T06:24:55.329Z,99252.08
2018-05-01T06:27:57.921Z,99255.24
2018-05-01T06:30:59.913Z,99261.32
2018-05-01T06:34:01.064Z,99272.10
2018-05-01T06:37:02.291Z,99275.86
2018-05-01T06:40:03.529Z,99288.98
2018-05-01T06:43:08.275Z,99288.75
2018-05-01T06:46:13.849Z,99283.14
2018-05-01T06:49:15.123Z,99290.17
2018-05-01T06:52:17.668Z,99294.32
2018-05-01T06:55:19.629Z,99316.38
2018-05-01T06:58:21.668Z,99312.41
2018-05-01T07:01:22.925Z,99308.81
2018-05-01T07:04:27.165Z,99328.27
2018-05-01T07:07:28.558Z,99326.02
2018-05-01T07:10:30.787Z,99326.05
2018-05-01T07:13:35.993Z,99317.13
2018-05-01T07:16:38.951Z,99345.64
2018-05-01T07:19:40.745Z,99345.95
2018-05-01T07:22:43.529Z,99356.31
2018-05-01T07:25:47.565Z,99322.37
2018-05-01T07:28:49.903Z,99345.07
2018-05-01T07:31:51.697Z,99333.63
2018-05-01T07:34:53.037Z,99375.23
2018-05-01T07:37:55.301Z,99374.39
2018-05-01T07:40:58.346Z,99372.21
2018-05-01T07:44:08.740Z,99378.02
2018-05-01T07:47:11.447Z,99369.53
2018-05-01T07:50:16.120Z,99375.95
2018-05-01T07:53:18.616Z,99379.59
2018-05-01T07:56:20.015Z,99386.16
2018-05-01T07:59:21.163Z,99361.80
2018-05-01T08:02:22.398Z,99379.91
2018-05-01T08:05:23.588Z,99375.89
2018-05-01T08:08:24.753Z,99403.33
2018-05-01T08:11:25.897Z,99387.20
2018-05-01T08:14:27.062Z,99389.97
2018-05-01T08:17:28.323Z,99404.22
2018-05-01T08:20:29.500Z,99404.48
2018-05-01T08:23:30.688Z,99401.78
2018-05-01T08:26:32.584Z,99407.08
2018-05-01T08:29:33.755Z,99410.59
2018-05-01T08:32:34.955Z,99429.73
2018-05-01T08:35:36.122Z,99436.22
2018-05-01T08:38:37.285Z,99434.34
2018-05-01T08:41:39.190Z,99431.87
2018-05-01T08:44:41.093Z,99437.52
2018-05-01T08:47:47.136Z,99441.23
2018-05-01T08:50:49.091Z,99468.21
2018-05-01T08:53:50.516Z,99476.48
2018-05-01T08:56:51.749Z,99465.48
2018-05-01T08:59:56.931Z,99475.60
2018-05-01T09:02:58.392Z,99462.74
2018-05-01T09:05:59.606Z,99476.80
2018-05-01T09:09:00.847Z,99468.75
2018-05-01T09:12:04.914Z,99482.81
2018-05-01T09:15:08.254Z,99484.45
2018-05-01T09:18:15.653Z,99483.86
2018-05-01T09:21:16.764Z,99459.89
2018-05-01T09:24:18.738Z,99497.33
2018-05-01T09:27:19.902Z,99504.39
2018-05-01T09:30:21.101Z,99507.14
2018-05-01T09:33:23.039Z,99499.04
2018-05-01T09:36:24.186Z,99532.52
2018-05-01T09:39:25.294Z,99509.41
2018-05-01T09:42:26.386Z,99512.22
2018-05-01T09:45:27.499Z,99524.00
2018-05-01T09:48:28.610Z,99512.92
2018-05-01T09:51:29.841Z,99527.48
2018-05-01T09:54:31.988Z,99528.36
2018-05-01T09:57:34.214Z,99543.15
2018-05-01T10:00:35.743Z,99545.33
2018-05-01T10:03:37.273Z,99533.88
2018-05-01T10:06:38.742Z,99550.07
2018-05-01T10:09:40.228Z,99552.98
2018-05-01T10:12:41.650Z,99558.02
2018-05-01T10:15:43.911Z,99565.80
2018-05-01T10:18:45.362Z,99536.89
2018-05-01T10:21:46.779Z,99557.29
2018-05-01T10:24:49.052Z,99535.89
2018-05-01T10:27:50.583Z,99549.02
2018-05-01T10:30:52.006Z,99551.34
2018-05-01T10:33:54.170Z,99544.34
2018-05-01T10:36:55.577Z,99557.06
2018-05-01T10:39:56.980Z,99549.45
2018-05-01T10:42:58.378Z,99559.63
2018-05-01T10:46:00.595Z,99560.67
2018-05-01T10:49:02.123Z,99572.86
2018-05-01T10:52:03.552Z,99571.14
2018-05-01T10:55:04.970Z,99583.80
2018-05-01T10:58:06.363Z,99589.53
2018-05-01T11:01:07.894Z,99573.93
2018-05-01T11:04:09.339Z,99575.20
2018-05-01T11:07:10.811Z,99569.31
2018-05-01T11:10:12.390Z,99574.75
2018-05-01T11:13:14.006Z,99559.55
2018-05-01T11:16:15.439Z,99582.18
2018-05-01T11:19:16.965Z,99587.66
2018-05-01T11:22:18.418Z,99600.63
2018-05-01T11:25:19.870Z,99608.77
2018-05-01T11:28:22.090Z,99601.37
2018-05-01T11:31:23.637Z,99616.30
2018-05-01T11:34:25.098Z,99575.66
2018-05-01T11:37:27.318Z,99613.28
2018-05-01T11:40:28.787Z,99623.60
2018-05-01T11:43:30.235Z,99620.90
2018-05-01T11:46:31.746Z,99620.92
2018-05-01T11:49:33.207Z,99629.22
2018-05-01T11:52:34.729Z,99624.52
2018-05-01T11:55:36.227Z,99630.73
2018-05-01T11:58:37.756Z,99638.23
2018-05-01T12:01:40.622Z,99639.09
2018-05-01T12:04:42.130Z,99654.26
2018-05-01T12:07:44.394Z,99642.21
2018-05-01T12:10:46.700Z,99652.86
2018-05-01T12:13:48.158Z,99638.52
2018-05-01T12:16:50.423Z,99645.63
2018-05-01T12:19:51.948Z,99635.11
2018-05-01T12:22:53.568Z,99646.53
2018-05-01T12:25:55.075Z,99648.02
2018-05-01T12:28:56.727Z,99632.56
2018-05-01T12:32:00.154Z,99642.49
2018-05-01T12:35:01.840Z,99642.98
2018-05-01T12:38:03.489Z,99637.49
2018-05-01T12:41:05.011Z,99628.58
2018-05-01T12:44:06.540Z,99642.05
2018-05-01T12:47:08.838Z,99649.77
2018-05-01T12:50:10.392Z,99660.11
2018-05-01T12:53:12.751Z,99652.76
2018-05-01T12:56:14.378Z,99648.30
2018-05-01T12:59:16.196Z,99670.92
2018-05-01T13:02:17.776Z,99663.36
2018-05-01T13:05:19.259Z,99649.40
2018-05-01T13:08:20.838Z,99648.48
2018-05-01T13:11:23.233Z,99650.61
2018-05-01T13:14:25.447Z,99662.56
2018-05-01T13:17:27.061Z,99667.34
2018-05-01T13:20:28.745Z,99657.48
2018-05-01T13:23:31.119Z,99677.88
2018-05-01T13:26:32.619Z,99676.77
2018-05-01T13:29:34.921Z,99673.16
2018-05-01T13:32:36.424Z,99674.22
2018-05-01T13:35:37.919Z,99680.47
2018-05-01T13:38:39.446Z,99679.91
2018-05-01T13:41:41.919Z,99670.63
2018-05-01T13:44:43.434Z,99668.82
2018-05-01T13:47:44.957Z,99673.91
2018-05-01T13:50:46.566Z,99687.91
2018-05-01T13:53:48.108Z,99691.81
2018-05-01T13:56:49.707Z,99690.30
2018-05-01T13:59:51.253Z,99671.05
2018-05-01T14:02:52.782Z,99694.67
2018-05-01T14:05:54.485Z,99694.55
2018-05-01T14:08:56.068Z,99697.56
2018-05-01T14:11:57.587Z,99695.84
2018-05-01T14:14:59.138Z,99699.41
2018-05-01T14:18:00.953Z,99698.00
2018-05-01T14:21:03.377Z,99701.77
2018-05-01T14:24:05.007Z,99694.13
2018-05-01T14:27:06.531Z,99708.55
2018-05-01T14:30:08.444Z,99705.69
2018-05-01T14:33:10.077Z,99698.33
2018-05-01T14:36:11.572Z,99711.98
2018-05-01T14:39:13.208Z,99720.19
2018-05-01T14:42:15.825Z,99707.62
2018-05-01T14:45:17.725Z,99720.63
2018-05-01T14:48:19.209Z,99717.63
2018-05-01T14:51:20.671Z,99722.06
2018-05-01T14:54:22.180Z,99732.59
2018-05-01T14:57:23.662Z,99726.36
2018-05-01T15:00:25.205Z,99720.04
2018-05-01T15:03:27.422Z,99726.88
2018-05-01T15:06:29.548Z,99720.25
2018-05-01T15:09:31.142Z,99716.20
2018-05-01T15:12:33.373Z,99720.19
2018-05-01T15:15:38.271Z,99728.27
2018-05-01T15:18:44.575Z,99733.16
2018-05-01T15:21:51.174Z,99729.98
2018-05-01T15:24:57.708Z,99739.41
2018-05-01T15:28:03.184Z,99740.72
2018-05-01T15:31:08.373Z,99733.11
2018-05-01T15:34:15.043Z,99734.93
2018-05-01T15:37:17.134Z,99731.31
2018-05-01T15:40:20.111Z,99723.55
2018-05-01T15:43:21.815Z,99739.85
2018-05-01T15:46:23.299Z,99739.98
2018-05-01T15:49:24.784Z,99738.89
2018-05-01T15:52:26.309Z,99726.23
2018-05-01T15:55:28.552Z,99714.92
2018-05-01T15:58:30.049Z,99735.56
2018-05-01T16:01:31.615Z,99735.27
2018-05-01T16:04:33.122Z,99734.28
2018-05-01T16:07:34.592Z,99743.11
2018-05-01T16:10:36.142Z,99735.11
2018-05-01T16:13:37.651Z,99733.72
2018-05-01T16:16:39.096Z,99730.84
2018-05-01T16:19:40.559Z,99743.24
2018-05-01T16:22:42.034Z,99738.47
2018-05-01T16:25:43.501Z,99736.34
2018-05-01T16:28:44.934Z,99728.50
2018-05-01T16:31:47.116Z,99734.27
2018-05-01T16:34:49.337Z,99727.42
2018-05-01T16:37:50.764Z,99729.84
2018-05-01T16:40:52.198Z,99727.84
2018-05-01T16:43:53.621Z,99734.55
2018-05-01T16:46:55.834Z,99726.42
2018-05-01T16:49:57.273Z,99724.60
2018-05-01T16:52:58.780Z,99726.21
2018-05-01T16:56:00.259Z,99720.59
2018-05-01T16:59:01.678Z,99727.20
2018-05-01T17:05:12.100Z,99724.31
2018-05-01T17:08:13.557Z,99734.64
2018-05-01T17:11:15.037Z,99726.78
2018-05-01T17:14:16.451Z,99730.34
2018-05-01T17:17:17.853Z,99731.42
2018-05-01T17:20:20.019Z,99742.48
2018-05-01T17:23:21.419Z,99738.91
2018-05-01T17:26:22.839Z,99737.91
2018-05-01T17:29:24.342Z,99739.66
2018-05-01T17:32:26.566Z,99718.12
2018-05-01T17:35:28.046Z,99739.45
2018-05-01T17:38:29.482Z,99748.89
2018-05-01T17:41:30.920Z,99753.41
2018-05-01T17:44:33.134Z,99750.22
2018-05-01T17:47:34.568Z,99749.69
2018-05-01T17:50:36.017Z,99756.91
2018-05-01T17:53:37.518Z,99746.39
2018-05-01T17:56:39.760Z,99749.86
2018-05-01T17:59:41.164Z,99764.35
2018-05-01T18:02:42.656Z,99762.33
2018-05-01T18:05:44.120Z,99770.58
2018-05-01T18:08:46.358Z,99768.30
2018-05-01T18:11:47.810Z,99773.78
2018-05-01T18:14:49.217Z,99776.12
2018-05-01T18:17:50.745Z,99774.61
2018-05-01T18:20:52.174Z,99773.77
2018-05-01T18:23:54.347Z,99782.02
2018-05-01T18:26:56.536Z,99797.59
2018-05-01T18:29:58.762Z,99793.57
2018-05-01T18:33:00.974Z,99789.27
2018-05-01T18:36:02.430Z,99792.67
2018-05-01T18:39:04.745Z,99782.69
2018-05-01T18:45:14.466Z,99795.23
2018-05-01T18:48:16.643Z,99805.00
2018-05-01T18:51:18.150Z,99806.08
2018-05-01T18:54:19.535Z,99791.03
2018-05-01T18:57:21.039Z,99804.06
2018-05-01T19:00:27.128Z,99795.45
2018-05-01T19:03:29.181Z,99801.63
2018-05-01T19:06:31.469Z,99812.84
2018-05-01T19:09:32.935Z,99819.83
2018-05-01T19:12:34.893Z,99813.73
2018-05-01T19:15:37.434Z,99808.02
2018-05-01T19:18:39.669Z,99815.12
2018-05-01T19:21:41.634Z,99817.52
2018-05-01T19:24:43.453Z,99818.06
2018-05-01T19:27:44.952Z,99828.70
2018-05-01T19:33:55.631Z,99830.03
2018-05-01T19:36:57.501Z,99837.34
2018-05-01T19:39:59.545Z,99824.45
2018-05-01T19:43:01.750Z,99835.19
2018-05-01T19:46:03.523Z,99839.34
2018-05-01T19:49:05.138Z,99837.48
2018-05-01T19:52:06.623Z,99835.94
2018-05-01T19:55:08.881Z,99835.91
2018-05-01T19:58:10.517Z,99837.45
2018-05-01T20:01:11.964Z,99843.08
2018-05-01T20:04:14.612Z,99836.28
2018-05-01T20:07:16.075Z,99839.73
2018-05-01T20:10:17.756Z,99834.56
2018-05-01T20:13:19.188Z,99834.00
2018-05-01T20:16:20.846Z,99831.52
2018-05-01T20:19:22.329Z,99837.13
2018-05-01T20:22:23.827Z,99844.77
2018-05-01T20:25:25.353Z,99839.55
2018-05-01T20:28:26.777Z,99845.67
2018-05-01T20:31:33.072Z,99832.05
2018-05-01T20:34:46.121Z,99837.16
2018-05-01T20:37:55.236Z,99837.59
2018-05-01T20:44:16.614Z,99852.14
2018-05-01T20:47:20.825Z,99852.97
2018-05-01T20:50:24.393Z,99848.77
2018-05-01T20:53:25.923Z,99848.55
2018-05-01T20:56:27.377Z,99851.14
2018-05-01T20:59:29.005Z,99851.28
2018-05-01T21:02:31.249Z,99859.61
2018-05-01T21:05:32.828Z,99871.17
2018-05-01T21:08:34.343Z,99870.67
2018-05-01T21:11:35.787Z,99878.50
2018-05-01T21:14:39.077Z,99875.02
2018-05-01T21:17:41.991Z,99878.66
2018-05-01T21:20:43.546Z,99886.46
2018-05-01T21:23:44.990Z,99878.67
2018-05-01T21:26:46.914Z,99851.06
2018-05-01T21:29:49.366Z,99866.31
2018-05-01T21:32:50.785Z,99870.61
2018-05-01T21:35:53.008Z,99867.39
2018-05-01T21:38:54.789Z,99863.67
2018-05-01T21:41:56.369Z,99866.73
2018-05-01T21:44:58.602Z,99856.77
2018-05-01T21:48:00.141Z,99862.38
2018-05-01T21:51:01.576Z,99864.34
2018-05-01T21:54:03.547Z,99876.08
2018-05-01T21:57:06.530Z,99877.26
2018-05-01T22:00:07.991Z,99881.70
2018-05-01T22:03:10.144Z,99880.98
2018-05-01T22:06:11.600Z,99879.46
2018-05-01T22:09:13.061Z,99884.97
2018-05-01T22:12:14.454Z,99883.95
2018-05-01T22:15:15.869Z,99881.00
2018-05-01T22:18:17.326Z,99876.63
2018-05-01T22:21:18.823Z,99878.28
2018-05-01T22:24:21.027Z,99875.86
2018-05-01T22:27:22.467Z,99874.41
2018-05-01T22:30:23.940Z,99883.23
2018-05-01T22:33:25.493Z,99885.55
2018-05-01T22:36:26.935Z,99885.73
2018-05-01T22:39:28.383Z,99896.70
2018-05-01T22:42:29.861Z,99898.31
2018-05-01T22:45:31.326Z,99892.70
2018-05-01T22:48:33.332Z,99890.75
2018-05-01T22:51:35.544Z,99892.97
2018-05-01T22:54:37.005Z,99882.52
2018-05-01T22:57:38.403Z,99881.60
2018-05-01T23:00:39.941Z,99883.30
2018-05-01T23:03:41.364Z,99875.86
2018-05-01T23:06:42.793Z,99881.70
2018-05-01T23:09:44.365Z,99883.37
2018-05-01T23:12:45.753Z,99878.83
2018-05-01T23:15:47.155Z,99887.35
2018-05-01T23:18:49.338Z,99872.91
2018-05-01T23:21:50.765Z,99879.02
2018-05-01T23:24:52.169Z,99868.36
2018-05-01T23:27:54.282Z,99878.16
2018-05-01T23:30:55.667Z,99873.61
2018-05-01T23:33:57.192Z,99878.08
2018-05-01T23:36:58.606Z,99878.02
2018-05-01T23:40:00.026Z,99870.91
2018-05-01T23:43:02.193Z,99868.41
2018-05-01T23:46:03.590Z,99870.47
2018-05-01T23:49:05.065Z,99863.31
2018-05-01T23:55:14.502Z,99865.32
2018-05-01T23:58:16.038Z,99864.54
